sensor_id;sensor_type;location;lat;lon;timestamp;P1;durP1;ratioP1;P2;durP2;ratioP2
14470;SDS011;7321;50.802;4.336;2023-09-19T00:01:39;9.73;;;3.35;;
14470;SDS011;7321;50.802;4.336;2023-09-19T00:04:13;11.23;;;2.88;;
14470;SDS011;7321;50.802;4.336;2023-09-19T00:06:40;11.48;;;3.05;;
14470;SDS011;7321;50.802;4.336;2023-09-19T00:09:06;7.78;;;2.97;;
14470;SDS011;7321;50.802;4.336;2023-09-19T00:11:36;10.57;;;2.80;;
14470;SDS011;7321;50.802;4.336;2023-09-19T00:14:03;9.20;;;2.90;;
14470;SDS011;7321;50.802;4.336;2023-09-19T00:16:30;9.32;;;2.40;;
14470;SDS011;7321;50.802;4.336;2023-09-19T00:18:57;9.57;;;2.58;;
14470;SDS011;7321;50.802;4.336;2023-09-19T00:21:24;8.80;;;2.58;;
14470;SDS011;7321;50.802;4.336;2023-09-19T00:23:50;9.55;;;2.65;;
14470;SDS011;7321;50.802;4.336;2023-09-19T00:26:16;7.63;;;2.50;;
14470;SDS011;7321;50.802;4.336;2023-09-19T00:28:43;6.80;;;2.25;;
14470;SDS011;7321;50.802;4.336;2023-09-19T00:31:09;7.00;;;2.45;;
14470;SDS011;7321;50.802;4.336;2023-09-19T00:33:35;7.70;;;2.08;;
14470;SDS011;7321;50.802;4.336;2023-09-19T00:36:02;8.13;;;2.47;;
14470;SDS011;7321;50.802;4.336;2023-09-19T00:38:30;12.23;;;2.75;;
14470;SDS011;7321;50.802;4.336;2023-09-19T00:40:57;10.10;;;2.58;;
14470;SDS011;7321;50.802;4.336;2023-09-19T00:43:24;9.85;;;3.40;;
14470;SDS011;7321;50.802;4.336;2023-09-19T00:45:52;12.82;;;3.13;;
14470;SDS011;7321;50.802;4.336;2023-09-19T00:48:20;11.55;;;2.95;;
14470;SDS011;7321;50.802;4.336;2023-09-19T00:50:47;13.32;;;2.83;;
14470;SDS011;7321;50.802;4.336;2023-09-19T00:53:15;9.85;;;2.83;;
14470;SDS011;7321;50.802;4.336;2023-09-19T00:55:45;11.55;;;3.25;;
14470;SDS011;7321;50.802;4.336;2023-09-19T00:58:12;11.10;;;2.88;;
14470;SDS011;7321;50.802;4.336;2023-09-19T01:00:38;9.98;;;2.83;;
14470;SDS011;7321;50.802;4.336;2023-09-19T01:03:05;11.55;;;2.70;;
14470;SDS011;7321;50.802;4.336;2023-09-19T01:05:34;12.23;;;3.20;;
14470;SDS011;7321;50.802;4.336;2023-09-19T01:08:01;8.80;;;3.00;;
14470;SDS011;7321;50.802;4.336;2023-09-19T01:10:27;10.15;;;2.38;;
14470;SDS011;7321;50.802;4.336;2023-09-19T01:15:40;8.10;;;2.33;;
14470;SDS011;7321;50.802;4.336;2023-09-19T01:21:08;12.13;;;2.92;;
14470;SDS011;7321;50.802;4.336;2023-09-19T01:23:57;9.47;;;3.00;;
14470;SDS011;7321;50.802;4.336;2023-09-19T01:32:05;15.43;;;3.60;;
14470;SDS011;7321;50.802;4.336;2023-09-19T01:34:47;10.35;;;3.03;;
14470;SDS011;7321;50.802;4.336;2023-09-19T01:37:18;15.05;;;3.05;;
14470;SDS011;7321;50.802;4.336;2023-09-19T01:39:58;13.25;;;2.83;;
14470;SDS011;7321;50.802;4.336;2023-09-19T01:47:52;12.35;;;2.90;;
14470;SDS011;7321;50.802;4.336;2023-09-19T01:50:30;10.55;;;2.85;;
14470;SDS011;7321;50.802;4.336;2023-09-19T01:55:30;11.35;;;2.85;;
14470;SDS011;7321;50.802;4.336;2023-09-19T01:58:11;9.85;;;2.80;;
14470;SDS011;7321;50.802;4.336;2023-09-19T02:00:40;7.55;;;2.90;;
14470;SDS011;7321;50.802;4.336;2023-09-19T02:03:08;8.60;;;2.92;;
14470;SDS011;7321;50.802;4.336;2023-09-19T02:05:35;12.35;;;3.17;;
14470;SDS011;7321;50.802;4.336;2023-09-19T02:08:01;9.88;;;3.00;;
14470;SDS011;7321;50.802;4.336;2023-09-19T02:10:28;12.97;;;3.10;;
14470;SDS011;7321;50.802;4.336;2023-09-19T02:12:54;8.82;;;2.88;;
14470;SDS011;7321;50.802;4.336;2023-09-19T02:15:19;9.55;;;2.70;;
14470;SDS011;7321;50.802;4.336;2023-09-19T02:17:46;8.43;;;2.97;;
14470;SDS011;7321;50.802;4.336;2023-09-19T02:20:12;9.00;;;2.67;;
14470;SDS011;7321;50.802;4.336;2023-09-19T02:22:42;11.55;;;3.38;;
14470;SDS011;7321;50.802;4.336;2023-09-19T02:25:08;9.00;;;3.23;;
14470;SDS011;7321;50.802;4.336;2023-09-19T02:27:34;9.40;;;2.88;;
14470;SDS011;7321;50.802;4.336;2023-09-19T02:30:00;9.05;;;3.08;;
14470;SDS011;7321;50.802;4.336;2023-09-19T02:32:29;10.03;;;2.97;;
14470;SDS011;7321;50.802;4.336;2023-09-19T02:35:01;9.85;;;3.28;;
14470;SDS011;7321;50.802;4.336;2023-09-19T02:37:30;9.05;;;3.05;;
14470;SDS011;7321;50.802;4.336;2023-09-19T02:39:56;8.50;;;2.40;;
14470;SDS011;7321;50.802;4.336;2023-09-19T02:42:22;12.73;;;3.53;;
14470;SDS011;7321;50.802;4.336;2023-09-19T02:44:48;6.63;;;2.50;;
14470;SDS011;7321;50.802;4.336;2023-09-19T02:47:14;11.23;;;3.00;;
14470;SDS011;7321;50.802;4.336;2023-09-19T02:49:41;10.98;;;2.95;;
14470;SDS011;7321;50.802;4.336;2023-09-19T02:52:08;10.77;;;3.53;;
14470;SDS011;7321;50.802;4.336;2023-09-19T02:54:33;9.63;;;3.17;;
14470;SDS011;7321;50.802;4.336;2023-09-19T02:56:59;7.60;;;2.73;;
14470;SDS011;7321;50.802;4.336;2023-09-19T02:59:25;9.13;;;2.88;;
14470;SDS011;7321;50.802;4.336;2023-09-19T03:01:51;12.33;;;2.70;;
14470;SDS011;7321;50.802;4.336;2023-09-19T03:04:19;11.53;;;2.77;;
14470;SDS011;7321;50.802;4.336;2023-09-19T03:06:45;16.17;;;3.57;;
14470;SDS011;7321;50.802;4.336;2023-09-19T03:09:14;9.43;;;2.90;;
14470;SDS011;7321;50.802;4.336;2023-09-19T03:11:41;9.97;;;2.67;;
14470;SDS011;7321;50.802;4.336;2023-09-19T03:14:07;8.40;;;2.70;;
14470;SDS011;7321;50.802;4.336;2023-09-19T03:16:35;8.87;;;2.87;;
14470;SDS011;7321;50.802;4.336;2023-09-19T03:19:02;10.38;;;2.72;;
14470;SDS011;7321;50.802;4.336;2023-09-19T03:21:28;10.57;;;3.13;;
14470;SDS011;7321;50.802;4.336;2023-09-19T03:23:55;9.93;;;2.75;;
14470;SDS011;7321;50.802;4.336;2023-09-19T03:26:21;6.70;;;2.45;;
14470;SDS011;7321;50.802;4.336;2023-09-19T03:28:47;8.18;;;3.03;;
14470;SDS011;7321;50.802;4.336;2023-09-19T03:31:12;6.38;;;2.72;;
14470;SDS011;7321;50.802;4.336;2023-09-19T03:33:38;8.50;;;2.25;;
14470;SDS011;7321;50.802;4.336;2023-09-19T03:36:04;9.05;;;3.28;;
14470;SDS011;7321;50.802;4.336;2023-09-19T03:38:30;11.73;;;2.87;;
14470;SDS011;7321;50.802;4.336;2023-09-19T03:40:57;6.75;;;2.45;;
14470;SDS011;7321;50.802;4.336;2023-09-19T03:43:24;6.40;;;2.42;;
14470;SDS011;7321;50.802;4.336;2023-09-19T03:45:50;10.63;;;3.22;;
14470;SDS011;7321;50.802;4.336;2023-09-19T03:48:16;10.15;;;3.00;;
14470;SDS011;7321;50.802;4.336;2023-09-19T03:50:42;11.03;;;3.13;;
14470;SDS011;7321;50.802;4.336;2023-09-19T03:53:09;12.82;;;3.00;;
14470;SDS011;7321;50.802;4.336;2023-09-19T03:55:35;11.27;;;2.70;;
14470;SDS011;7321;50.802;4.336;2023-09-19T03:58:03;6.10;;;2.80;;
14470;SDS011;7321;50.802;4.336;2023-09-19T04:00:30;11.60;;;2.77;;
14470;SDS011;7321;50.802;4.336;2023-09-19T04:02:56;11.10;;;3.00;;
14470;SDS011;7321;50.802;4.336;2023-09-19T04:05:24;13.90;;;3.03;;
14470;SDS011;7321;50.802;4.336;2023-09-19T04:07:50;5.97;;;2.57;;
14470;SDS011;7321;50.802;4.336;2023-09-19T04:10:16;11.02;;;3.30;;
14470;SDS011;7321;50.802;4.336;2023-09-19T04:12:52;9.47;;;2.93;;
14470;SDS011;7321;50.802;4.336;2023-09-19T04:15:18;9.40;;;2.70;;
14470;SDS011;7321;50.802;4.336;2023-09-19T04:17:48;8.00;;;2.65;;
14470;SDS011;7321;50.802;4.336;2023-09-19T04:20:20;8.50;;;2.90;;
14470;SDS011;7321;50.802;4.336;2023-09-19T04:22:48;10.80;;;3.03;;
14470;SDS011;7321;50.802;4.336;2023-09-19T04:25:15;8.77;;;2.40;;
14470;SDS011;7321;50.802;4.336;2023-09-19T04:27:40;10.77;;;2.70;;
14470;SDS011;7321;50.802;4.336;2023-09-19T04:30:07;8.13;;;2.70;;
14470;SDS011;7321;50.802;4.336;2023-09-19T04:32:37;9.05;;;2.92;;
14470;SDS011;7321;50.802;4.336;2023-09-19T04:35:08;8.83;;;2.80;;
14470;SDS011;7321;50.802;4.336;2023-09-19T04:37:38;10.63;;;2.87;;
14470;SDS011;7321;50.802;4.336;2023-09-19T04:40:06;13.35;;;3.38;;
14470;SDS011;7321;50.802;4.336;2023-09-19T04:42:38;11.67;;;2.83;;
14470;SDS011;7321;50.802;4.336;2023-09-19T04:45:07;13.80;;;3.30;;
14470;SDS011;7321;50.802;4.336;2023-09-19T04:47:36;9.37;;;3.10;;
14470;SDS011;7321;50.802;4.336;2023-09-19T04:50:07;8.87;;;3.00;;
14470;SDS011;7321;50.802;4.336;2023-09-19T04:52:41;12.73;;;3.30;;
14470;SDS011;7321;50.802;4.336;2023-09-19T04:55:13;12.13;;;3.27;;
14470;SDS011;7321;50.802;4.336;2023-09-19T04:57:43;7.63;;;2.77;;
14470;SDS011;7321;50.802;4.336;2023-09-19T05:00:17;9.07;;;3.07;;
14470;SDS011;7321;50.802;4.336;2023-09-19T05:02:44;8.87;;;2.70;;
14470;SDS011;7321;50.802;4.336;2023-09-19T05:05:11;11.67;;;3.50;;
14470;SDS011;7321;50.802;4.336;2023-09-19T05:07:40;8.73;;;3.10;;
14470;SDS011;7321;50.802;4.336;2023-09-19T05:10:07;12.07;;;2.87;;
14470;SDS011;7321;50.802;4.336;2023-09-19T05:12:34;11.87;;;2.77;;
14470;SDS011;7321;50.802;4.336;2023-09-19T05:15:01;10.63;;;2.90;;
14470;SDS011;7321;50.802;4.336;2023-09-19T05:17:32;9.17;;;3.20;;
14470;SDS011;7321;50.802;4.336;2023-09-19T05:20:02;11.63;;;2.80;;
14470;SDS011;7321;50.802;4.336;2023-09-19T05:22:40;8.03;;;3.17;;
14470;SDS011;7321;50.802;4.336;2023-09-19T05:25:09;11.70;;;2.77;;
14470;SDS011;7321;50.802;4.336;2023-09-19T05:27:36;13.40;;;3.80;;
14470;SDS011;7321;50.802;4.336;2023-09-19T05:30:02;14.30;;;3.00;;
14470;SDS011;7321;50.802;4.336;2023-09-19T05:32:28;12.00;;;3.50;;
14470;SDS011;7321;50.802;4.336;2023-09-19T05:34:55;6.80;;;2.77;;
14470;SDS011;7321;50.802;4.336;2023-09-19T05:37:21;11.70;;;2.50;;
14470;SDS011;7321;50.802;4.336;2023-09-19T05:39:48;7.40;;;2.70;;
14470;SDS011;7321;50.802;4.336;2023-09-19T05:42:14;9.77;;;2.93;;
14470;SDS011;7321;50.802;4.336;2023-09-19T05:44:40;10.33;;;2.87;;
14470;SDS011;7321;50.802;4.336;2023-09-19T05:47:06;12.07;;;3.10;;
14470;SDS011;7321;50.802;4.336;2023-09-19T05:49:37;8.43;;;3.03;;
14470;SDS011;7321;50.802;4.336;2023-09-19T05:52:06;11.23;;;2.73;;
14470;SDS011;7321;50.802;4.336;2023-09-19T05:54:32;12.65;;;3.10;;
14470;SDS011;7321;50.802;4.336;2023-09-19T05:57:01;10.53;;;2.60;;
14470;SDS011;7321;50.802;4.336;2023-09-19T05:59:27;10.30;;;3.10;;
14470;SDS011;7321;50.802;4.336;2023-09-19T06:01:53;13.60;;;3.07;;
14470;SDS011;7321;50.802;4.336;2023-09-19T06:04:19;13.23;;;2.63;;
14470;SDS011;7321;50.802;4.336;2023-09-19T06:06:46;10.07;;;3.30;;
14470;SDS011;7321;50.802;4.336;2023-09-19T06:09:13;8.67;;;2.90;;
14470;SDS011;7321;50.802;4.336;2023-09-19T06:11:43;8.73;;;2.83;;
14470;SDS011;7321;50.802;4.336;2023-09-19T06:14:08;9.32;;;2.35;;
14470;SDS011;7321;50.802;4.336;2023-09-19T06:16:35;10.20;;;2.80;;
14470;SDS011;7321;50.802;4.336;2023-09-19T06:19:03;7.53;;;2.97;;
14470;SDS011;7321;50.802;4.336;2023-09-19T06:21:31;8.20;;;2.47;;
14470;SDS011;7321;50.802;4.336;2023-09-19T06:23:57;9.03;;;3.10;;
14470;SDS011;7321;50.802;4.336;2023-09-19T06:26:24;7.43;;;2.97;;
14470;SDS011;7321;50.802;4.336;2023-09-19T06:28:52;9.35;;;2.88;;
14470;SDS011;7321;50.802;4.336;2023-09-19T06:31:18;7.57;;;2.50;;
14470;SDS011;7321;50.802;4.336;2023-09-19T06:33:43;14.73;;;3.10;;
14470;SDS011;7321;50.802;4.336;2023-09-19T06:36:09;7.93;;;2.60;;
14470;SDS011;7321;50.802;4.336;2023-09-19T06:38:36;7.97;;;2.95;;
14470;SDS011;7321;50.802;4.336;2023-09-19T06:41:04;8.30;;;2.70;;
14470;SDS011;7321;50.802;4.336;2023-09-19T06:43:33;6.97;;;2.40;;
14470;SDS011;7321;50.802;4.336;2023-09-19T06:46:00;11.40;;;2.42;;
14470;SDS011;7321;50.802;4.336;2023-09-19T06:48:27;7.88;;;2.50;;
14470;SDS011;7321;50.802;4.336;2023-09-19T06:50:54;6.93;;;2.38;;
14470;SDS011;7321;50.802;4.336;2023-09-19T06:53:23;8.23;;;2.50;;
14470;SDS011;7321;50.802;4.336;2023-09-19T06:55:50;10.05;;;2.88;;
14470;SDS011;7321;50.802;4.336;2023-09-19T06:58:16;4.18;;;2.10;;
14470;SDS011;7321;50.802;4.336;2023-09-19T07:00:42;11.00;;;2.53;;
14470;SDS011;7321;50.802;4.336;2023-09-19T07:03:09;8.63;;;2.58;;
14470;SDS011;7321;50.802;4.336;2023-09-19T07:05:39;11.38;;;3.00;;
14470;SDS011;7321;50.802;4.336;2023-09-19T07:08:06;10.93;;;2.63;;
14470;SDS011;7321;50.802;4.336;2023-09-19T07:10:33;7.70;;;2.70;;
14470;SDS011;7321;50.802;4.336;2023-09-19T07:15:30;15.43;;;2.95;;
14470;SDS011;7321;50.802;4.336;2023-09-19T07:18:04;8.93;;;2.67;;
14470;SDS011;7321;50.802;4.336;2023-09-19T07:20:31;12.40;;;2.72;;
14470;SDS011;7321;50.802;4.336;2023-09-19T07:22:59;8.85;;;2.65;;
14470;SDS011;7321;50.802;4.336;2023-09-19T07:25:26;9.20;;;2.53;;
14470;SDS011;7321;50.802;4.336;2023-09-19T07:27:54;8.98;;;2.28;;
14470;SDS011;7321;50.802;4.336;2023-09-19T07:30:21;15.80;;;2.78;;
14470;SDS011;7321;50.802;4.336;2023-09-19T07:32:47;9.93;;;2.70;;
14470;SDS011;7321;50.802;4.336;2023-09-19T07:35:13;7.65;;;2.80;;
14470;SDS011;7321;50.802;4.336;2023-09-19T07:37:40;10.07;;;2.60;;
14470;SDS011;7321;50.802;4.336;2023-09-19T07:40:06;7.30;;;2.70;;
14470;SDS011;7321;50.802;4.336;2023-09-19T07:42:35;16.08;;;3.42;;
14470;SDS011;7321;50.802;4.336;2023-09-19T07:45:04;9.80;;;2.95;;
14470;SDS011;7321;50.802;4.336;2023-09-19T07:47:30;12.88;;;3.45;;
14470;SDS011;7321;50.802;4.336;2023-09-19T07:49:58;7.78;;;2.88;;
14470;SDS011;7321;50.802;4.336;2023-09-19T07:52:24;7.68;;;2.72;;
14470;SDS011;7321;50.802;4.336;2023-09-19T07:54:50;8.73;;;2.90;;
14470;SDS011;7321;50.802;4.336;2023-09-19T07:57:15;12.48;;;3.05;;
14470;SDS011;7321;50.802;4.336;2023-09-19T07:59:41;7.68;;;2.63;;
14470;SDS011;7321;50.802;4.336;2023-09-19T08:02:08;10.23;;;2.72;;
14470;SDS011;7321;50.802;4.336;2023-09-19T08:04:42;7.07;;;2.45;;
14470;SDS011;7321;50.802;4.336;2023-09-19T08:07:08;8.82;;;2.60;;
14470;SDS011;7321;50.802;4.336;2023-09-19T08:09:34;12.68;;;3.10;;
14470;SDS011;7321;50.802;4.336;2023-09-19T08:12:00;10.82;;;3.03;;
14470;SDS011;7321;50.802;4.336;2023-09-19T08:14:36;10.65;;;3.35;;
14470;SDS011;7321;50.802;4.336;2023-09-19T08:17:06;11.00;;;2.83;;
14470;SDS011;7321;50.802;4.336;2023-09-19T08:19:33;9.57;;;2.78;;
14470;SDS011;7321;50.802;4.336;2023-09-19T08:21:59;9.77;;;2.70;;
14470;SDS011;7321;50.802;4.336;2023-09-19T08:24:29;15.50;;;3.22;;
14470;SDS011;7321;50.802;4.336;2023-09-19T08:26:56;12.15;;;3.58;;
14470;SDS011;7321;50.802;4.336;2023-09-19T08:29:23;10.98;;;3.00;;
14470;SDS011;7321;50.802;4.336;2023-09-19T08:31:55;8.75;;;2.60;;
14470;SDS011;7321;50.802;4.336;2023-09-19T08:34:25;9.65;;;2.88;;
14470;SDS011;7321;50.802;4.336;2023-09-19T08:36:54;7.32;;;2.42;;
14470;SDS011;7321;50.802;4.336;2023-09-19T08:39:23;8.85;;;2.47;;
14470;SDS011;7321;50.802;4.336;2023-09-19T08:41:49;8.57;;;2.53;;
14470;SDS011;7321;50.802;4.336;2023-09-19T08:44:22;11.48;;;2.55;;
14470;SDS011;7321;50.802;4.336;2023-09-19T08:46:49;9.15;;;2.53;;
14470;SDS011;7321;50.802;4.336;2023-09-19T08:49:33;9.27;;;2.88;;
14470;SDS011;7321;50.802;4.336;2023-09-19T08:54:54;8.25;;;2.67;;
14470;SDS011;7321;50.802;4.336;2023-09-19T08:57:29;9.13;;;2.20;;
14470;SDS011;7321;50.802;4.336;2023-09-19T09:00:00;6.85;;;2.35;;
14470;SDS011;7321;50.802;4.336;2023-09-19T09:02:30;7.28;;;2.45;;
14470;SDS011;7321;50.802;4.336;2023-09-19T09:04:59;7.25;;;2.40;;
14470;SDS011;7321;50.802;4.336;2023-09-19T09:07:26;10.35;;;2.80;;
14470;SDS011;7321;50.802;4.336;2023-09-19T09:09:53;9.57;;;2.90;;
14470;SDS011;7321;50.802;4.336;2023-09-19T09:12:19;6.50;;;2.47;;
14470;SDS011;7321;50.802;4.336;2023-09-19T09:14:46;10.50;;;2.70;;
14470;SDS011;7321;50.802;4.336;2023-09-19T09:17:18;8.88;;;2.90;;
14470;SDS011;7321;50.802;4.336;2023-09-19T09:19:45;11.70;;;2.30;;
14470;SDS011;7321;50.802;4.336;2023-09-19T09:22:12;8.48;;;2.58;;
14470;SDS011;7321;50.802;4.336;2023-09-19T09:24:51;5.70;;;2.22;;
14470;SDS011;7321;50.802;4.336;2023-09-19T09:27:23;11.98;;;2.65;;
14470;SDS011;7321;50.802;4.336;2023-09-19T09:29:50;9.18;;;2.35;;
14470;SDS011;7321;50.802;4.336;2023-09-19T09:32:27;8.07;;;2.70;;
14470;SDS011;7321;50.802;4.336;2023-09-19T09:34:58;7.55;;;2.50;;
14470;SDS011;7321;50.802;4.336;2023-09-19T09:37:25;7.15;;;2.40;;
14470;SDS011;7321;50.802;4.336;2023-09-19T09:47:59;9.35;;;2.30;;
14470;SDS011;7321;50.802;4.336;2023-09-19T09:53:28;8.18;;;2.20;;
14470;SDS011;7321;50.802;4.336;2023-09-19T09:56:03;5.47;;;1.88;;
14470;SDS011;7321;50.802;4.336;2023-09-19T10:01:01;7.03;;;1.45;;
14470;SDS011;7321;50.802;4.336;2023-09-19T10:03:37;6.68;;;2.25;;
14470;SDS011;7321;50.802;4.336;2023-09-19T10:06:13;6.03;;;1.92;;
14470;SDS011;7321;50.802;4.336;2023-09-19T10:11:45;6.82;;;1.90;;
14470;SDS011;7321;50.802;4.336;2023-09-19T10:14:16;7.30;;;2.38;;
14470;SDS011;7321;50.802;4.336;2023-09-19T10:16:49;5.88;;;1.92;;
14470;SDS011;7321;50.802;4.336;2023-09-19T10:19:23;8.43;;;2.17;;
14470;SDS011;7321;50.802;4.336;2023-09-19T10:21:54;8.45;;;2.00;;
14470;SDS011;7321;50.802;4.336;2023-09-19T10:24:21;8.13;;;1.83;;
14470;SDS011;7321;50.802;4.336;2023-09-19T10:26:50;5.78;;;1.88;;
14470;SDS011;7321;50.802;4.336;2023-09-19T10:29:16;6.72;;;1.80;;
14470;SDS011;7321;50.802;4.336;2023-09-19T10:31:44;4.32;;;1.50;;
14470;SDS011;7321;50.802;4.336;2023-09-19T10:34:16;4.30;;;1.88;;
14470;SDS011;7321;50.802;4.336;2023-09-19T10:36:46;5.00;;;1.90;;
14470;SDS011;7321;50.802;4.336;2023-09-19T10:39:15;8.35;;;2.08;;
14470;SDS011;7321;50.802;4.336;2023-09-19T10:41:50;3.88;;;1.65;;
14470;SDS011;7321;50.802;4.336;2023-09-19T10:44:24;4.72;;;1.30;;
14470;SDS011;7321;50.802;4.336;2023-09-19T10:46:51;5.18;;;2.00;;
14470;SDS011;7321;50.802;4.336;2023-09-19T10:49:19;9.13;;;1.52;;
14470;SDS011;7321;50.802;4.336;2023-09-19T10:51:46;4.40;;;1.08;;
14470;SDS011;7321;50.802;4.336;2023-09-19T10:54:16;5.13;;;1.98;;
14470;SDS011;7321;50.802;4.336;2023-09-19T10:56:48;5.05;;;1.80;;
14470;SDS011;7321;50.802;4.336;2023-09-19T10:59:17;6.50;;;1.50;;
14470;SDS011;7321;50.802;4.336;2023-09-19T11:04:37;3.95;;;1.33;;
14470;SDS011;7321;50.802;4.336;2023-09-19T11:07:11;3.42;;;1.73;;
14470;SDS011;7321;50.802;4.336;2023-09-19T11:09:50;5.35;;;1.27;;
14470;SDS011;7321;50.802;4.336;2023-09-19T11:15:06;5.75;;;1.38;;
14470;SDS011;7321;50.802;4.336;2023-09-19T11:17:42;6.05;;;1.65;;
14470;SDS011;7321;50.802;4.336;2023-09-19T11:20:20;9.05;;;1.83;;
14470;SDS011;7321;50.802;4.336;2023-09-19T11:30:45;6.35;;;1.52;;
14470;SDS011;7321;50.802;4.336;2023-09-19T11:33:19;8.95;;;1.60;;
14470;SDS011;7321;50.802;4.336;2023-09-19T11:36:10;6.30;;;1.40;;
14470;SDS011;7321;50.802;4.336;2023-09-19T11:43:48;5.35;;;1.67;;
14470;SDS011;7321;50.802;4.336;2023-09-19T11:46:16;6.60;;;1.75;;
14470;SDS011;7321;50.802;4.336;2023-09-19T11:48:49;5.47;;;1.35;;
14470;SDS011;7321;50.802;4.336;2023-09-19T11:51:19;6.05;;;1.52;;
14470;SDS011;7321;50.802;4.336;2023-09-19T11:53:53;4.50;;;1.35;;
14470;SDS011;7321;50.802;4.336;2023-09-19T11:56:22;3.78;;;1.50;;
14470;SDS011;7321;50.802;4.336;2023-09-19T11:58:56;6.15;;;1.33;;
14470;SDS011;7321;50.802;4.336;2023-09-19T12:01:29;6.03;;;1.35;;
14470;SDS011;7321;50.802;4.336;2023-09-19T12:03:57;7.97;;;1.67;;
14470;SDS011;7321;50.802;4.336;2023-09-19T12:06:24;5.13;;;1.40;;
14470;SDS011;7321;50.802;4.336;2023-09-19T12:08:52;6.80;;;1.48;;
14470;SDS011;7321;50.802;4.336;2023-09-19T12:11:26;3.63;;;1.48;;
14470;SDS011;7321;50.802;4.336;2023-09-19T12:13:55;5.82;;;1.52;;
14470;SDS011;7321;50.802;4.336;2023-09-19T12:16:25;4.32;;;1.33;;
14470;SDS011;7321;50.802;4.336;2023-09-19T12:18:55;2.03;;;0.90;;
14470;SDS011;7321;50.802;4.336;2023-09-19T12:21:23;2.15;;;1.10;;
14470;SDS011;7321;50.802;4.336;2023-09-19T12:23:58;6.97;;;1.48;;
14470;SDS011;7321;50.802;4.336;2023-09-19T12:26:30;4.32;;;1.48;;
14470;SDS011;7321;50.802;4.336;2023-09-19T12:29:10;4.65;;;1.15;;
14470;SDS011;7321;50.802;4.336;2023-09-19T12:31:58;5.50;;;1.35;;
14470;SDS011;7321;50.802;4.336;2023-09-19T12:34:28;5.68;;;1.50;;
14470;SDS011;7321;50.802;4.336;2023-09-19T12:37:09;4.30;;;1.10;;
14470;SDS011;7321;50.802;4.336;2023-09-19T12:39:37;5.25;;;1.38;;
14470;SDS011;7321;50.802;4.336;2023-09-19T12:42:07;4.70;;;1.35;;
14470;SDS011;7321;50.802;4.336;2023-09-19T12:44:42;3.75;;;1.73;;
14470;SDS011;7321;50.802;4.336;2023-09-19T12:47:10;7.63;;;1.75;;
14470;SDS011;7321;50.802;4.336;2023-09-19T12:50:04;6.25;;;1.98;;
14470;SDS011;7321;50.802;4.336;2023-09-19T12:52:39;6.30;;;1.25;;
14470;SDS011;7321;50.802;4.336;2023-09-19T12:55:06;3.78;;;1.30;;
14470;SDS011;7321;50.802;4.336;2023-09-19T12:57:33;2.92;;;1.05;;
14470;SDS011;7321;50.802;4.336;2023-09-19T13:00:03;8.75;;;1.30;;
14470;SDS011;7321;50.802;4.336;2023-09-19T13:02:36;4.28;;;1.27;;
14470;SDS011;7321;50.802;4.336;2023-09-19T13:05:03;4.90;;;1.13;;
14470;SDS011;7321;50.802;4.336;2023-09-19T13:07:41;7.10;;;1.60;;
14470;SDS011;7321;50.802;4.336;2023-09-19T13:10:12;4.30;;;1.40;;
14470;SDS011;7321;50.802;4.336;2023-09-19T13:12:41;6.13;;;1.33;;
14470;SDS011;7321;50.802;4.336;2023-09-19T13:15:12;4.20;;;1.10;;
14470;SDS011;7321;50.802;4.336;2023-09-19T13:17:47;2.33;;;1.10;;
14470;SDS011;7321;50.802;4.336;2023-09-19T13:20:26;3.33;;;1.13;;
14470;SDS011;7321;50.802;4.336;2023-09-19T13:22:57;3.40;;;1.20;;
14470;SDS011;7321;50.802;4.336;2023-09-19T13:25:33;2.13;;;1.20;;
14470;SDS011;7321;50.802;4.336;2023-09-19T13:28:00;3.33;;;1.10;;
14470;SDS011;7321;50.802;4.336;2023-09-19T13:30:29;5.25;;;1.48;;
14470;SDS011;7321;50.802;4.336;2023-09-19T13:33:09;4.63;;;1.20;;
14470;SDS011;7321;50.802;4.336;2023-09-19T13:35:38;5.13;;;1.48;;
14470;SDS011;7321;50.802;4.336;2023-09-19T13:38:06;4.82;;;1.48;;
14470;SDS011;7321;50.802;4.336;2023-09-19T13:40:36;3.65;;;1.25;;
14470;SDS011;7321;50.802;4.336;2023-09-19T13:43:07;3.42;;;1.33;;
14470;SDS011;7321;50.802;4.336;2023-09-19T13:45:33;5.82;;;1.42;;
14470;SDS011;7321;50.802;4.336;2023-09-19T13:47:59;2.70;;;1.30;;
14470;SDS011;7321;50.802;4.336;2023-09-19T13:50:25;8.43;;;2.13;;
14470;SDS011;7321;50.802;4.336;2023-09-19T13:52:54;4.70;;;1.45;;
14470;SDS011;7321;50.802;4.336;2023-09-19T13:55:20;5.00;;;1.60;;
14470;SDS011;7321;50.802;4.336;2023-09-19T13:57:46;7.70;;;1.73;;
14470;SDS011;7321;50.802;4.336;2023-09-19T14:00:17;4.97;;;1.55;;
14470;SDS011;7321;50.802;4.336;2023-09-19T14:02:43;5.35;;;1.67;;
14470;SDS011;7321;50.802;4.336;2023-09-19T14:05:14;6.55;;;1.35;;
14470;SDS011;7321;50.802;4.336;2023-09-19T14:07:42;7.57;;;1.20;;
14470;SDS011;7321;50.802;4.336;2023-09-19T14:10:10;3.95;;;1.70;;
14470;SDS011;7321;50.802;4.336;2023-09-19T14:12:36;4.90;;;1.60;;
14470;SDS011;7321;50.802;4.336;2023-09-19T14:15:06;7.15;;;1.95;;
14470;SDS011;7321;50.802;4.336;2023-09-19T14:17:35;5.93;;;1.75;;
14470;SDS011;7321;50.802;4.336;2023-09-19T14:20:02;6.72;;;1.75;;
14470;SDS011;7321;50.802;4.336;2023-09-19T14:22:28;4.07;;;1.85;;
14470;SDS011;7321;50.802;4.336;2023-09-19T14:24:56;6.82;;;1.95;;
14470;SDS011;7321;50.802;4.336;2023-09-19T14:27:24;5.72;;;1.77;;
14470;SDS011;7321;50.802;4.336;2023-09-19T14:29:50;5.63;;;1.55;;
14470;SDS011;7321;50.802;4.336;2023-09-19T14:32:16;3.22;;;1.50;;
14470;SDS011;7321;50.802;4.336;2023-09-19T14:34:42;3.65;;;1.20;;
14470;SDS011;7321;50.802;4.336;2023-09-19T14:37:09;6.93;;;1.92;;
14470;SDS011;7321;50.802;4.336;2023-09-19T14:39:36;5.47;;;1.50;;
14470;SDS011;7321;50.802;4.336;2023-09-19T14:42:04;7.90;;;1.90;;
14470;SDS011;7321;50.802;4.336;2023-09-19T14:44:30;8.57;;;2.10;;
14470;SDS011;7321;50.802;4.336;2023-09-19T14:46:56;3.25;;;1.40;;
14470;SDS011;7321;50.802;4.336;2023-09-19T14:49:22;4.05;;;1.67;;
14470;SDS011;7321;50.802;4.336;2023-09-19T14:51:49;8.95;;;1.80;;
14470;SDS011;7321;50.802;4.336;2023-09-19T14:54:15;6.70;;;2.10;;
14470;SDS011;7321;50.802;4.336;2023-09-19T14:56:49;3.95;;;1.60;;
14470;SDS011;7321;50.802;4.336;2023-09-19T14:59:36;6.75;;;1.98;;
14470;SDS011;7321;50.802;4.336;2023-09-19T15:02:03;3.50;;;1.90;;
14470;SDS011;7321;50.802;4.336;2023-09-19T15:04:29;5.15;;;1.85;;
14470;SDS011;7321;50.802;4.336;2023-09-19T15:06:55;5.00;;;2.00;;
14470;SDS011;7321;50.802;4.336;2023-09-19T15:09:22;5.15;;;1.95;;
14470;SDS011;7321;50.802;4.336;2023-09-19T15:11:52;5.30;;;1.90;;
14470;SDS011;7321;50.802;4.336;2023-09-19T15:14:19;6.45;;;2.25;;
14470;SDS011;7321;50.802;4.336;2023-09-19T15:16:45;3.55;;;1.83;;
14470;SDS011;7321;50.802;4.336;2023-09-19T15:19:13;3.80;;;1.77;;
14470;SDS011;7321;50.802;4.336;2023-09-19T15:21:43;3.35;;;1.60;;
14470;SDS011;7321;50.802;4.336;2023-09-19T15:24:09;3.50;;;1.98;;
14470;SDS011;7321;50.802;4.336;2023-09-19T15:26:35;6.43;;;1.80;;
14470;SDS011;7321;50.802;4.336;2023-09-19T15:29:08;5.55;;;1.85;;
14470;SDS011;7321;50.802;4.336;2023-09-19T15:31:34;9.10;;;2.00;;
14470;SDS011;7321;50.802;4.336;2023-09-19T15:34:03;4.13;;;1.90;;
14470;SDS011;7321;50.802;4.336;2023-09-19T15:36:33;5.97;;;1.90;;
14470;SDS011;7321;50.802;4.336;2023-09-19T15:39:07;6.57;;;1.88;;
14470;SDS011;7321;50.802;4.336;2023-09-19T15:41:37;3.53;;;1.58;;
14470;SDS011;7321;50.802;4.336;2023-09-19T15:44:10;3.60;;;1.60;;
14470;SDS011;7321;50.802;4.336;2023-09-19T15:46:37;5.90;;;1.67;;
14470;SDS011;7321;50.802;4.336;2023-09-19T15:49:03;4.75;;;1.50;;
14470;SDS011;7321;50.802;4.336;2023-09-19T15:51:36;3.15;;;1.67;;
14470;SDS011;7321;50.802;4.336;2023-09-19T15:54:06;6.97;;;2.03;;
14470;SDS011;7321;50.802;4.336;2023-09-19T15:56:39;7.35;;;2.20;;
14470;SDS011;7321;50.802;4.336;2023-09-19T15:59:06;4.95;;;1.92;;
14470;SDS011;7321;50.802;4.336;2023-09-19T16:01:32;7.43;;;1.90;;
14470;SDS011;7321;50.802;4.336;2023-09-19T16:03:58;4.60;;;1.80;;
14470;SDS011;7321;50.802;4.336;2023-09-19T16:06:27;7.57;;;2.05;;
14470;SDS011;7321;50.802;4.336;2023-09-19T16:08:54;4.72;;;1.67;;